createdAt,value
2022-07-27T00:00:34.137Z,19.07
2022-07-27T00:02:56.289Z,19.01
2022-07-27T00:05:20.073Z,19.03
2022-07-27T00:07:41.596Z,19.05
2022-07-27T00:10:04.693Z,18.97
2022-07-27T00:12:26.147Z,18.96
2022-07-27T00:14:47.652Z,18.95
2022-07-27T00:17:09.100Z,18.95
2022-07-27T00:19:30.580Z,18.92
2022-07-27T00:21:52.048Z,18.92
2022-07-27T00:24:14.154Z,18.95
2022-07-27T00:26:35.745Z,18.92
2022-07-27T00:28:57.214Z,18.90
2022-07-27T00:31:18.769Z,18.89
2022-07-27T00:33:40.364Z,18.91
2022-07-27T00:36:02.806Z,18.92
2022-07-27T00:38:25.157Z,18.90
2022-07-27T00:40:46.647Z,18.92
2022-07-27T00:43:08.146Z,18.95
2022-07-27T00:45:29.891Z,18.92
2022-07-27T00:47:54.903Z,18.89
2022-07-27T00:50:16.731Z,18.88
2022-07-27T00:52:38.951Z,18.86
2022-07-27T00:55:01.086Z,18.84
2022-07-27T00:57:23.340Z,18.75
2022-07-27T00:59:44.883Z,18.72
2022-07-27T01:02:11.240Z,18.75
2022-07-27T01:04:33.834Z,18.61
2022-07-27T01:06:57.258Z,18.53
2022-07-27T01:13:02.171Z,18.45
2022-07-27T01:15:23.790Z,18.45
2022-07-27T01:17:45.267Z,18.34
2022-07-27T01:20:07.200Z,18.27
2022-07-27T01:22:28.679Z,18.23
2022-07-27T01:24:50.294Z,18.19
2022-07-27T01:27:11.866Z,18.18
2022-07-27T01:29:34.752Z,18.18
2022-07-27T01:31:56.468Z,18.24
2022-07-27T01:34:17.926Z,18.19
2022-07-27T01:36:39.469Z,18.22
2022-07-27T01:39:01.040Z,18.24
2022-07-27T01:41:22.779Z,18.19
2022-07-27T01:43:45.208Z,18.22
2022-07-27T01:46:07.282Z,18.21
2022-07-27T01:48:28.812Z,18.24
2022-07-27T01:50:51.122Z,18.23
2022-07-27T01:53:12.643Z,18.28
2022-07-27T01:55:36.952Z,18.27
2022-07-27T01:58:00.747Z,18.26
2022-07-27T02:00:22.307Z,18.23
2022-07-27T02:02:43.955Z,18.26
2022-07-27T02:05:06.942Z,18.24
2022-07-27T02:07:28.534Z,18.21
2022-07-27T02:09:49.992Z,18.28
2022-07-27T02:12:30.763Z,18.25
2022-07-27T02:14:52.193Z,18.17
2022-07-27T02:17:16.261Z,18.16
2022-07-27T02:19:40.309Z,18.13
2022-07-27T02:22:03.962Z,18.09
2022-07-27T02:24:25.406Z,18.10
2022-07-27T02:26:47.318Z,18.11
2022-07-27T02:29:11.347Z,18.12
2022-07-27T02:31:33.237Z,18.11
2022-07-27T02:33:54.719Z,18.12
2022-07-27T02:36:16.160Z,18.08
2022-07-27T02:38:37.685Z,18.04
2022-07-27T02:40:59.150Z,18.06
2022-07-27T02:43:20.625Z,18.14
2022-07-27T02:45:42.062Z,18.06
2022-07-27T02:48:03.730Z,17.94
2022-07-27T02:50:25.402Z,17.92
2022-07-27T02:52:46.929Z,17.93
2022-07-27T02:55:09.458Z,17.88
2022-07-27T02:57:34.339Z,17.85
2022-07-27T02:59:57.400Z,17.85
2022-07-27T03:02:18.906Z,17.92
2022-07-27T03:04:40.547Z,17.87
2022-07-27T03:07:02.138Z,17.86
2022-07-27T03:09:33.011Z,17.87
2022-07-27T03:11:55.077Z,17.91
2022-07-27T03:14:16.524Z,17.85
2022-07-27T03:16:37.986Z,17.86
2022-07-27T03:18:59.463Z,17.85
2022-07-27T03:21:20.877Z,17.83
2022-07-27T03:23:43.037Z,17.82
2022-07-27T03:26:04.728Z,17.90
2022-07-27T03:28:26.162Z,17.86
2022-07-27T03:30:47.734Z,17.90
2022-07-27T03:33:09.249Z,17.88
2022-07-27T03:35:30.734Z,17.84
2022-07-27T03:37:52.557Z,17.76
2022-07-27T03:40:14.550Z,17.77
2022-07-27T03:42:36.049Z,17.76
2022-07-27T03:44:57.624Z,17.77
2022-07-27T03:47:19.285Z,17.85
2022-07-27T03:49:40.818Z,17.85
2022-07-27T03:52:02.290Z,17.88
2022-07-27T03:54:23.721Z,17.89
2022-07-27T03:56:45.411Z,17.97
2022-07-27T03:59:06.858Z,17.95
2022-07-27T04:01:28.400Z,17.89
2022-07-27T04:03:49.870Z,17.91
2022-07-27T04:06:11.444Z,17.90
2022-07-27T04:08:32.869Z,17.92
2022-07-27T04:10:54.291Z,17.91
2022-07-27T04:13:18.245Z,17.91
2022-07-27T04:15:39.865Z,17.88
2022-07-27T04:18:01.458Z,17.93
2022-07-27T04:20:22.960Z,17.83
2022-07-27T04:22:44.561Z,17.89
2022-07-27T04:25:06.622Z,17.83
2022-07-27T04:27:28.060Z,17.85
2022-07-27T04:29:49.554Z,17.85
2022-07-27T04:32:11.013Z,17.85
2022-07-27T04:34:32.449Z,17.76
2022-07-27T04:36:53.903Z,17.84
2022-07-27T04:39:15.624Z,17.85
2022-07-27T04:41:37.548Z,17.79
2022-07-27T04:43:59.105Z,17.96
2022-07-27T04:46:21.844Z,17.93
2022-07-27T04:48:49.072Z,17.88
2022-07-27T04:51:14.911Z,17.93
2022-07-27T04:53:37.595Z,17.85
2022-07-27T04:56:15.550Z,17.75
2022-07-27T04:58:39.949Z,17.70
2022-07-27T05:01:02.239Z,17.76
2022-07-27T05:03:23.690Z,17.80
2022-07-27T05:05:49.786Z,17.88
2022-07-27T05:08:11.899Z,17.89
2022-07-27T05:10:33.420Z,17.85
2022-07-27T05:12:55.481Z,17.89
2022-07-27T05:15:18.060Z,17.88
2022-07-27T05:17:39.862Z,17.91
2022-07-27T05:20:01.427Z,17.86
2022-07-27T05:22:22.881Z,17.86
2022-07-27T05:24:45.650Z,17.95
2022-07-27T05:27:07.154Z,18.12
2022-07-27T05:29:28.704Z,18.10
2022-07-27T05:31:50.171Z,18.07
2022-07-27T05:34:11.681Z,18.14
2022-07-27T05:36:33.130Z,18.17
2022-07-27T05:38:54.575Z,18.14
2022-07-27T05:41:16.134Z,18.10
2022-07-27T05:43:37.559Z,18.12
2022-07-27T05:45:59.229Z,18.27
2022-07-27T05:48:20.782Z,18.38
2022-07-27T05:50:42.277Z,18.29
2022-07-27T05:53:04.024Z,18.15
2022-07-27T05:55:25.981Z,18.15
2022-07-27T05:57:47.406Z,18.14
2022-07-27T06:00:10.799Z,18.17
2022-07-27T06:02:32.250Z,18.14
2022-07-27T06:04:54.558Z,18.33
2022-07-27T06:07:34.473Z,18.29
2022-07-27T06:09:55.968Z,18.47
2022-07-27T06:12:17.394Z,18.55
2022-07-27T06:14:39.021Z,18.59
2022-07-27T06:17:00.573Z,18.58
2022-07-27T06:19:22.108Z,18.55
2022-07-27T06:21:43.545Z,18.46
2022-07-27T06:24:05.308Z,18.54
2022-07-27T06:26:26.775Z,18.55
2022-07-27T06:28:48.290Z,18.79
2022-07-27T06:31:09.855Z,18.85
2022-07-27T06:33:32.349Z,18.93
2022-07-27T06:35:58.352Z,19.06
2022-07-27T06:38:19.826Z,18.98
2022-07-27T06:40:41.283Z,19.11
2022-07-27T06:43:03.153Z,19.03
2022-07-27T06:45:24.979Z,19.15
2022-07-27T06:47:48.765Z,19.17
2022-07-27T06:50:11.485Z,19.22
2022-07-27T06:52:32.954Z,19.33
2022-07-27T06:54:54.420Z,19.54
2022-07-27T06:57:15.917Z,19.60
2022-07-27T06:59:43.029Z,19.71
2022-07-27T07:02:05.229Z,19.93
2022-07-27T07:04:26.777Z,20.01
2022-07-27T07:06:48.189Z,20.07
2022-07-27T07:09:10.256Z,20.26
2022-07-27T07:11:32.285Z,20.28
2022-07-27T07:13:55.130Z,20.38
2022-07-27T07:16:16.615Z,20.32
2022-07-27T07:18:38.105Z,20.30
2022-07-27T07:20:59.543Z,20.26
2022-07-27T07:23:21.038Z,20.07
2022-07-27T07:25:42.535Z,20.17
2022-07-27T07:28:05.745Z,20.41
2022-07-27T07:30:28.082Z,20.58
2022-07-27T07:32:49.665Z,20.62
2022-07-27T07:35:11.719Z,20.81
2022-07-27T07:37:33.979Z,20.90
2022-07-27T07:39:55.609Z,21.09
2022-07-27T07:42:17.156Z,20.98
2022-07-27T07:44:38.916Z,21.26
2022-07-27T07:47:00.674Z,21.27
2022-07-27T07:49:38.126Z,21.38
2022-07-27T07:52:02.158Z,21.32
2022-07-27T07:54:24.246Z,21.41
2022-07-27T07:56:45.691Z,21.37
2022-07-27T07:59:07.245Z,21.14
2022-07-27T08:01:28.777Z,21.26
2022-07-27T08:03:52.290Z,21.12
2022-07-27T08:06:13.725Z,21.02
2022-07-27T08:08:35.269Z,21.13
2022-07-27T08:10:56.814Z,21.21
2022-07-27T08:13:21.820Z,21.33
2022-07-27T08:15:44.064Z,21.42
2022-07-27T08:18:06.060Z,21.51
2022-07-27T08:20:28.379Z,21.61
2022-07-27T08:22:49.862Z,21.88
2022-07-27T08:25:12.896Z,21.83
2022-07-27T08:27:40.153Z,22.05
2022-07-27T08:30:02.485Z,22.13
2022-07-27T08:32:25.203Z,22.14
2022-07-27T08:34:50.283Z,22.18
2022-07-27T08:37:15.385Z,22.25
2022-07-27T08:42:19.158Z,22.40
2022-07-27T08:44:41.489Z,22.45
2022-07-27T08:47:03.654Z,22.68
2022-07-27T08:49:36.419Z,22.93
2022-07-27T08:52:04.366Z,23.07
2022-07-27T08:54:26.178Z,23.09
2022-07-27T08:56:48.110Z,23.28
2022-07-27T08:59:10.089Z,23.17
2022-07-27T09:01:33.346Z,23.17
2022-07-27T09:03:54.881Z,23.16
2022-07-27T09:06:39.798Z,23.27
2022-07-27T09:09:01.324Z,23.48
2022-07-27T09:11:22.782Z,23.55
2022-07-27T09:13:44.303Z,23.67
2022-07-27T09:16:23.515Z,23.70
2022-07-27T09:18:45.389Z,23.78
2022-07-27T09:21:11.241Z,23.81
2022-07-27T09:23:32.695Z,23.64
2022-07-27T09:26:33.764Z,23.88
2022-07-27T09:28:58.470Z,23.87
2022-07-27T09:31:19.968Z,24.01
2022-07-27T09:33:47.041Z,24.05
2022-07-27T09:36:08.713Z,24.06
2022-07-27T09:38:30.205Z,23.93
2022-07-27T09:41:09.712Z,23.84
2022-07-27T09:46:42.839Z,24.04
2022-07-27T09:49:05.313Z,24.07
2022-07-27T09:54:09.891Z,24.00
2022-07-27T09:56:32.821Z,24.09
2022-07-27T09:58:56.803Z,23.96
2022-07-27T10:01:23.229Z,24.09
2022-07-27T10:03:46.137Z,24.28
2022-07-27T10:06:09.300Z,24.49
2022-07-27T10:08:31.990Z,24.54
2022-07-27T10:10:53.900Z,24.56
2022-07-27T10:13:15.386Z,24.45
2022-07-27T10:15:41.437Z,24.57
2022-07-27T10:18:11.869Z,24.49
2022-07-27T10:20:36.239Z,24.58
2022-07-27T10:23:01.405Z,24.74
2022-07-27T10:25:24.528Z,24.90
2022-07-27T10:27:48.967Z,25.05
2022-07-27T10:30:10.771Z,25.11
2022-07-27T10:32:33.808Z,25.08
2022-07-27T10:34:55.519Z,25.00
2022-07-27T10:37:25.151Z,25.15
2022-07-27T10:39:51.723Z,25.30
2022-07-27T10:42:31.387Z,25.33
2022-07-27T10:44:59.988Z,25.75
2022-07-27T10:47:34.380Z,25.82
2022-07-27T10:50:17.941Z,25.93
2022-07-27T10:52:42.324Z,25.73
2022-07-27T10:55:05.718Z,25.66
2022-07-27T10:57:27.540Z,25.83
2022-07-27T11:02:40.864Z,25.86
2022-07-27T11:05:04.345Z,25.88
2022-07-27T11:07:32.187Z,26.18
2022-07-27T11:10:05.135Z,26.11
2022-07-27T11:12:30.542Z,26.36
2022-07-27T11:14:54.632Z,26.65
2022-07-27T11:20:02.828Z,26.65
2022-07-27T11:25:17.943Z,26.92
2022-07-27T11:27:50.120Z,27.23
2022-07-27T11:30:22.502Z,27.22
2022-07-27T11:32:44.027Z,27.30
2022-07-27T11:35:19.516Z,27.03
2022-07-27T11:37:43.196Z,26.92
2022-07-27T11:40:28.209Z,26.56
2022-07-27T11:42:47.923Z,26.79
2022-07-27T11:45:09.648Z,26.50
2022-07-27T11:47:31.092Z,26.75
2022-07-27T11:49:52.610Z,26.74
2022-07-27T11:52:17.118Z,26.36
2022-07-27T11:54:40.779Z,26.32
2022-07-27T11:57:05.562Z,26.39
2022-07-27T11:59:35.655Z,26.43
2022-07-27T12:02:08.734Z,26.50
2022-07-27T12:04:42.111Z,26.71
2022-07-27T12:07:14.082Z,26.61
2022-07-27T12:09:49.824Z,26.73
2022-07-27T12:12:16.168Z,26.60
2022-07-27T12:14:40.389Z,26.82
2022-07-27T12:17:11.964Z,26.58
2022-07-27T12:19:33.520Z,26.54
2022-07-27T12:21:55.305Z,26.41
2022-07-27T12:24:16.821Z,26.51
2022-07-27T12:26:38.341Z,27.01
2022-07-27T12:29:13.216Z,27.69
2022-07-27T12:31:36.006Z,28.41
2022-07-27T12:34:05.784Z,28.86
2022-07-27T12:36:28.347Z,29.11
2022-07-27T12:38:50.312Z,28.99
2022-07-27T12:41:24.176Z,28.90
2022-07-27T12:43:45.645Z,29.44
2022-07-27T12:46:12.450Z,29.91
2022-07-27T12:48:38.711Z,30.88
2022-07-27T12:51:03.440Z,30.44
2022-07-27T12:53:24.892Z,30.43
2022-07-27T12:55:46.379Z,30.54
2022-07-27T12:58:10.165Z,30.65
2022-07-27T13:00:33.931Z,30.46
2022-07-27T13:02:56.536Z,31.31
2022-07-27T13:05:19.346Z,30.79
2022-07-27T13:07:43.136Z,30.57
2022-07-27T13:10:06.947Z,30.28
2022-07-27T13:12:28.663Z,30.12
2022-07-27T13:14:50.192Z,30.63
2022-07-27T13:17:11.699Z,30.15
2022-07-27T13:19:33.172Z,29.40
2022-07-27T13:21:54.715Z,29.01
2022-07-27T13:24:16.155Z,29.10
2022-07-27T13:26:39.367Z,29.12
2022-07-27T13:29:00.801Z,29.85
2022-07-27T13:31:22.436Z,30.75
2022-07-27T13:33:43.921Z,31.49
2022-07-27T13:36:07.272Z,31.86
2022-07-27T13:38:29.480Z,32.64
2022-07-27T13:40:51.050Z,33.46
2022-07-27T13:43:12.532Z,32.39
2022-07-27T13:45:42.952Z,31.36
2022-07-27T13:48:04.861Z,30.59
2022-07-27T13:50:26.709Z,30.00
2022-07-27T13:52:48.523Z,30.64
2022-07-27T13:55:10.121Z,31.15
2022-07-27T13:57:31.600Z,31.39
2022-07-27T13:59:53.710Z,32.35
2022-07-27T14:02:15.925Z,32.27
2022-07-27T14:04:42.179Z,31.81
2022-07-27T14:07:06.970Z,31.40
2022-07-27T14:09:47.145Z,30.87
2022-07-27T14:12:08.956Z,30.25
2022-07-27T14:14:30.408Z,29.63
2022-07-27T14:16:51.910Z,29.19
2022-07-27T14:19:14.868Z,28.95
2022-07-27T14:21:36.562Z,28.82
2022-07-27T14:24:01.137Z,29.25
2022-07-27T14:26:22.667Z,28.93
2022-07-27T14:28:44.925Z,29.37
2022-07-27T14:31:08.858Z,29.95
2022-07-27T14:33:36.594Z,30.24
2022-07-27T14:35:59.271Z,31.04
2022-07-27T14:38:26.806Z,31.45
2022-07-27T14:40:51.589Z,31.57
2022-07-27T14:43:13.012Z,31.65
2022-07-27T14:45:45.396Z,32.31
2022-07-27T14:48:08.078Z,32.36
2022-07-27T14:50:29.721Z,32.58
2022-07-27T14:52:51.362Z,32.87
2022-07-27T14:55:13.843Z,33.15
2022-07-27T14:57:35.375Z,33.51
2022-07-27T14:59:56.887Z,33.48
2022-07-27T15:02:18.445Z,33.85
2022-07-27T15:04:39.971Z,34.05
2022-07-27T15:07:02.098Z,34.39
2022-07-27T15:09:26.739Z,34.23
2022-07-27T15:11:48.480Z,34.22
2022-07-27T15:14:10.682Z,33.16
2022-07-27T15:16:32.440Z,32.50
2022-07-27T15:18:53.949Z,32.76
2022-07-27T15:21:15.450Z,32.31
2022-07-27T15:23:37.287Z,32.42
2022-07-27T15:25:58.829Z,32.35
2022-07-27T15:28:20.337Z,32.34
2022-07-27T15:30:41.805Z,32.46
2022-07-27T15:33:03.463Z,32.53
2022-07-27T15:35:25.050Z,32.50
2022-07-27T15:37:53.904Z,32.89
2022-07-27T15:40:35.055Z,33.23
2022-07-27T15:42:56.536Z,33.11
2022-07-27T15:45:18.036Z,33.36
2022-07-27T15:47:39.830Z,33.43
2022-07-27T15:50:01.369Z,33.46
2022-07-27T15:52:22.816Z,33.29
2022-07-27T15:54:45.801Z,32.85
2022-07-27T15:57:09.629Z,32.82
2022-07-27T15:59:31.078Z,33.22
2022-07-27T16:01:52.914Z,33.22
2022-07-27T16:04:15.235Z,33.68
2022-07-27T16:06:39.347Z,33.65
2022-07-27T16:09:01.054Z,33.39
2022-07-27T16:11:22.496Z,33.39
2022-07-27T16:13:43.928Z,33.39
2022-07-27T16:16:24.140Z,33.07
2022-07-27T16:18:45.620Z,32.85
2022-07-27T16:21:07.525Z,32.75
2022-07-27T16:23:29.150Z,32.84
2022-07-27T16:26:05.007Z,32.87
2022-07-27T16:28:28.058Z,32.64
2022-07-27T16:30:49.676Z,32.46
2022-07-27T16:33:11.620Z,32.53
2022-07-27T16:35:33.117Z,32.66
2022-07-27T16:37:54.660Z,32.64
2022-07-27T16:40:16.137Z,32.24
2022-07-27T16:42:38.144Z,32.08
2022-07-27T16:44:59.739Z,32.04
2022-07-27T16:47:21.281Z,31.97
2022-07-27T16:49:42.787Z,31.95
2022-07-27T16:52:06.069Z,31.19
2022-07-27T16:54:27.515Z,31.21
2022-07-27T16:56:48.950Z,30.96
2022-07-27T16:59:11.132Z,30.67
2022-07-27T17:01:32.987Z,30.38
2022-07-27T17:03:56.432Z,30.29
2022-07-27T17:06:18.954Z,29.96
2022-07-27T17:08:43.339Z,30.06
2022-07-27T17:11:06.413Z,30.00
2022-07-27T17:13:33.880Z,29.81
2022-07-27T17:15:56.193Z,29.92
2022-07-27T17:18:17.755Z,29.73
2022-07-27T17:20:40.808Z,29.63
2022-07-27T17:23:05.399Z,29.34
2022-07-27T17:25:27.073Z,29.19
2022-07-27T17:27:48.766Z,29.11
2022-07-27T17:30:11.197Z,29.24
2022-07-27T17:32:33.937Z,28.79
2022-07-27T17:34:55.416Z,28.92
2022-07-27T17:37:17.080Z,28.96
2022-07-27T17:39:39.408Z,28.93
2022-07-27T17:42:00.874Z,28.76
2022-07-27T17:44:22.489Z,28.57
2022-07-27T17:46:43.947Z,28.49
2022-07-27T17:49:05.510Z,28.55
2022-07-27T17:51:27.552Z,28.54
2022-07-27T17:53:49.618Z,28.55
2022-07-27T17:56:11.660Z,28.55
2022-07-27T17:58:33.163Z,28.61
2022-07-27T18:00:54.689Z,28.51
2022-07-27T18:03:17.357Z,28.46
2022-07-27T18:05:43.065Z,28.39
2022-07-27T18:08:04.695Z,28.29
2022-07-27T18:10:26.188Z,28.23
2022-07-27T18:12:47.878Z,28.05
2022-07-27T18:15:28.332Z,27.95
2022-07-27T18:17:49.866Z,27.74
2022-07-27T18:20:11.764Z,27.49
2022-07-27T18:22:38.640Z,27.54
2022-07-27T18:25:00.337Z,27.29
2022-07-27T18:27:21.777Z,27.10
2022-07-27T18:29:43.290Z,26.98
2022-07-27T18:32:04.907Z,26.53
2022-07-27T18:34:26.372Z,26.40
2022-07-27T18:36:47.849Z,26.21
2022-07-27T18:39:09.456Z,26.18
2022-07-27T18:41:32.222Z,26.01
2022-07-27T18:43:53.709Z,25.86
2022-07-27T18:46:17.231Z,25.72
2022-07-27T18:48:38.917Z,25.55
2022-07-27T18:51:00.417Z,25.53
2022-07-27T18:53:22.084Z,25.33
2022-07-27T18:55:44.814Z,25.01
2022-07-27T18:58:07.008Z,24.79
2022-07-27T19:00:28.629Z,24.54
2022-07-27T19:02:51.517Z,24.34
2022-07-27T19:05:22.244Z,24.15
2022-07-27T19:07:55.719Z,23.83
2022-07-27T19:10:17.612Z,23.61
2022-07-27T19:12:39.079Z,23.49
2022-07-27T19:15:00.506Z,23.30
2022-07-27T19:17:22.048Z,23.22
2022-07-27T19:19:43.657Z,23.11
2022-07-27T19:22:05.194Z,22.98
2022-07-27T19:24:26.743Z,22.83
2022-07-27T19:26:48.193Z,22.57
2022-07-27T19:29:11.894Z,22.35
2022-07-27T19:31:34.293Z,22.21
2022-07-27T19:33:56.172Z,22.07
2022-07-27T19:36:18.403Z,21.93
2022-07-27T19:38:39.848Z,21.81
2022-07-27T19:41:02.183Z,21.54
2022-07-27T19:43:23.724Z,21.32
2022-07-27T19:45:45.287Z,21.12
2022-07-27T19:48:08.230Z,20.94
2022-07-27T19:50:29.941Z,20.78
2022-07-27T19:52:51.389Z,20.56
2022-07-27T19:55:12.843Z,20.41
2022-07-27T19:57:34.606Z,20.28
2022-07-27T19:59:56.962Z,20.15
2022-07-27T20:02:34.438Z,19.96
2022-07-27T20:04:55.921Z,19.89
2022-07-27T20:07:17.443Z,19.71
2022-07-27T20:09:39.073Z,19.33
2022-07-27T20:12:00.774Z,19.17
2022-07-27T20:14:22.955Z,19.02
2022-07-27T20:16:44.478Z,18.99
2022-07-27T20:19:06.066Z,18.85
2022-07-27T20:21:27.571Z,18.74
2022-07-27T20:23:49.290Z,18.62
2022-07-27T20:26:12.288Z,18.62
2022-07-27T20:28:33.802Z,18.51
2022-07-27T20:30:55.409Z,18.31
2022-07-27T20:33:21.269Z,18.21
2022-07-27T20:35:42.750Z,18.11
2022-07-27T20:38:04.477Z,18.01
2022-07-27T20:40:26.175Z,17.87
2022-07-27T20:42:48.020Z,17.68
2022-07-27T20:45:11.509Z,17.61
2022-07-27T20:47:34.830Z,17.61
2022-07-27T20:49:56.380Z,17.49
2022-07-27T20:52:17.922Z,17.38
2022-07-27T20:54:39.437Z,17.13
2022-07-27T20:57:01.067Z,17.14
2022-07-27T20:59:23.094Z,17.01
2022-07-27T21:01:45.051Z,16.96
2022-07-27T21:04:06.645Z,16.94
2022-07-27T21:06:28.773Z,16.98
2022-07-27T21:08:50.255Z,16.72
2022-07-27T21:11:11.761Z,16.63
2022-07-27T21:13:33.285Z,16.58
2022-07-27T21:15:54.799Z,16.60
2022-07-27T21:18:16.328Z,16.46
2022-07-27T21:20:37.992Z,16.54
2022-07-27T21:23:18.051Z,16.32
2022-07-27T21:25:43.968Z,16.23
2022-07-27T21:28:05.791Z,16.26
2022-07-27T21:30:27.952Z,16.16
2022-07-27T21:32:49.435Z,16.11
2022-07-27T21:35:10.945Z,15.91
2022-07-27T21:37:32.394Z,15.68
2022-07-27T21:39:53.868Z,15.60
2022-07-27T21:42:15.357Z,15.59
2022-07-27T21:44:37.461Z,15.60
2022-07-27T21:46:58.986Z,15.59
2022-07-27T21:49:34.110Z,15.44
2022-07-27T21:51:56.128Z,15.52
2022-07-27T21:54:17.853Z,15.34
2022-07-27T21:56:41.161Z,15.23
2022-07-27T21:59:04.019Z,15.14
2022-07-27T22:01:25.634Z,15.21
2022-07-27T22:03:47.251Z,15.02
2022-07-27T22:06:08.891Z,14.94
2022-07-27T22:08:30.406Z,14.82
2022-07-27T22:10:51.993Z,14.80
2022-07-27T22:13:13.481Z,14.76
2022-07-27T22:15:34.986Z,14.80
2022-07-27T22:17:56.664Z,14.79
2022-07-27T22:20:19.103Z,14.91
2022-07-27T22:22:40.584Z,14.80
2022-07-27T22:25:02.266Z,14.78
2022-07-27T22:27:23.784Z,14.88
2022-07-27T22:29:45.463Z,14.73
2022-07-27T22:32:07.851Z,14.82
2022-07-27T22:34:29.792Z,14.69
2022-07-27T22:36:51.807Z,14.64
2022-07-27T22:39:13.315Z,14.69
2022-07-27T22:41:34.803Z,14.64
2022-07-27T22:43:56.322Z,14.52
2022-07-27T22:46:22.222Z,14.45
2022-07-27T22:48:46.804Z,14.49
2022-07-27T22:51:08.283Z,14.56
2022-07-27T22:53:29.923Z,14.57
2022-07-27T22:55:51.418Z,14.45
2022-07-27T22:58:13.007Z,14.58
2022-07-27T23:00:34.558Z,14.41
2022-07-27T23:02:56.116Z,14.19
2022-07-27T23:05:17.713Z,14.12
2022-07-27T23:07:39.265Z,14.08
2022-07-27T23:10:01.020Z,14.13
2022-07-27T23:12:22.892Z,14.12
2022-07-27T23:14:49.197Z,14.03
2022-07-27T23:17:10.858Z,14.02
2022-07-27T23:19:32.450Z,13.93
2022-07-27T23:21:58.896Z,13.80
2022-07-27T23:24:29.145Z,13.72
2022-07-27T23:26:51.041Z,13.73
2022-07-27T23:29:12.524Z,13.76
2022-07-27T23:31:34.396Z,13.81
2022-07-27T23:33:55.918Z,13.80
2022-07-27T23:36:17.470Z,13.61
2022-07-27T23:38:39.064Z,13.51
2022-07-27T23:41:00.921Z,13.42
2022-07-27T23:43:22.400Z,13.43
2022-07-27T23:45:43.879Z,13.50
2022-07-27T23:48:05.512Z,13.51
2022-07-27T23:50:26.995Z,13.45
2022-07-27T23:52:48.458Z,13.45
2022-07-27T23:55:10.279Z,13.44
2022-07-27T23:57:32.087Z,13.52
2022-07-27T23:59:53.966Z,13.55
